Glendale, Arizona
Current Conditions -  °F | °C
As of 9:47 AM on Friday 31 Oct 2014 (Local Time) from KGEU Reporting Station
Few Clouds Few Clouds  
Wind Chill: 79°   Ceiling: Unl
Heat Index: 79°   Visibility: 20mi
Dew Point: 45°   Wind: 3mph
Humidity: 30%   Direction: 40°NE
Pressure: 29.94"   Gusts: NA
Location:  33.54°N, 112.18°W
Report Text: KGEU 311647Z 04003KT 20SM FEW200 26/07 A2994
Loading
Personal Weather Stations






























Interactive Weather Map
Tropical Storm Tracking
New forecast layout! Learn more

10-Day Weather Forecast

Advertisements
Track Severe Weather on mobile